Accueil
METAR-TAF:

METAR-TAF

Aéroports :

Aéroport du Donégal

Donegal, Irlande

latitude: 55-02-39N, longitude: 8-20-28W, altitude: 9 m

Observation

Le bulletin a été fait il y a 1 heure et 0 minutes, à 18:30 UTC
Vent 14 kt de nord/nord-ouest
Température 12°C
Humidité 76%
Pression 1023 hPa
Visibilité 10 km ou plus
Quelques nuages à une hauteur de 2100 ft
Ciel couvert à une hauteur de 3400 ft

METAR: EIDL 301830Z 34014KT 9999 FEW021 OVC034 12/08 Q1023

Heure: 20:30 (19:30 UTC)

Prévision

Le bulletin a été fait il y a 2 heures et 30 minutes, à 17:00 UTC
Prévision valable du 30 à 18 UTC au 31 à 03 UTC
Vent 15 kt de nord
Visibilité 10 km ou plus
Quelques nuages à une hauteur de 2000 ft
Nuages fragmentés à une hauteur de 3000 ft
Probabilité 30% :
Temporairement
du 30 à 18 UTC au 30 à 21 UTC
Nuages fragmentés à une hauteur de 1400 ft

TAF: EIDL 301700Z 3018/3103 35015KT 9999 FEW020 BKN030 PROB30 TEMPO 3018/3021 BKN014

Observations et prévisions météorologiques de plus de 4000 aéroports (messages METAR et TAF).

Les stations disponibles sont représentées par des disques jaunes et rouges sur la carte.

Passer la souris dessus pour voir le nom de la station.

Cliquer dessus pour voir les observations et prévisions météorologiques.

Pour changer de carte: cliquez sur les boutons verts avec une croix noire pour zoomer, sur le bouton vert avec un tiret pour effectuer un zoom arrière, ou sur les flèches vertes pour les cartes adjacentes.


METAR-TAF: